sensor_id;sensor_type;location;lat;lon;timestamp;P1;durP1;ratioP1;P2;durP2;ratioP2
77246;SDS011;66279;42.820;23.374;2023-02-15T00:00:05;3.42;;;3.13;;
77246;SDS011;66279;42.820;23.374;2023-02-15T00:02:35;2.60;;;2.40;;
77246;SDS011;66279;42.820;23.374;2023-02-15T00:05:00;3.10;;;2.80;;
77246;SDS011;66279;42.820;23.374;2023-02-15T00:07:26;3.10;;;2.80;;
77246;SDS011;66279;42.820;23.374;2023-02-15T00:09:51;2.67;;;2.40;;
77246;SDS011;66279;42.820;23.374;2023-02-15T00:12:17;2.58;;;2.30;;
77246;SDS011;66279;42.820;23.374;2023-02-15T00:14:43;3.17;;;2.70;;
77246;SDS011;66279;42.820;23.374;2023-02-15T00:17:08;3.45;;;2.78;;
77246;SDS011;66279;42.820;23.374;2023-02-15T00:19:34;2.30;;;1.98;;
77246;SDS011;66279;42.820;23.374;2023-02-15T00:21:59;2.20;;;2.03;;
77246;SDS011;66279;42.820;23.374;2023-02-15T00:24:25;2.92;;;2.67;;
77246;SDS011;66279;42.820;23.374;2023-02-15T00:26:51;2.90;;;2.70;;
77246;SDS011;66279;42.820;23.374;2023-02-15T00:29:17;3.75;;;3.17;;
77246;SDS011;66279;42.820;23.374;2023-02-15T00:31:44;1.92;;;1.70;;
77246;SDS011;66279;42.820;23.374;2023-02-15T00:36:40;2.60;;;2.22;;
77246;SDS011;66279;42.820;23.374;2023-02-15T00:39:06;2.45;;;2.25;;
77246;SDS011;66279;42.820;23.374;2023-02-15T00:41:32;2.78;;;2.58;;
77246;SDS011;66279;42.820;23.374;2023-02-15T00:43:58;3.15;;;2.92;;
77246;SDS011;66279;42.820;23.374;2023-02-15T00:46:23;3.50;;;2.85;;
77246;SDS011;66279;42.820;23.374;2023-02-15T00:48:49;2.78;;;2.58;;
77246;SDS011;66279;42.820;23.374;2023-02-15T00:51:15;3.42;;;2.88;;
77246;SDS011;66279;42.820;23.374;2023-02-15T00:53:42;3.63;;;3.33;;
77246;SDS011;66279;42.820;23.374;2023-02-15T00:56:09;2.92;;;2.63;;
77246;SDS011;66279;42.820;23.374;2023-02-15T00:58:35;3.38;;;3.08;;
77246;SDS011;66279;42.820;23.374;2023-02-15T01:01:05;3.85;;;3.55;;
77246;SDS011;66279;42.820;23.374;2023-02-15T01:03:33;2.72;;;2.53;;
77246;SDS011;66279;42.820;23.374;2023-02-15T01:05:59;2.45;;;2.25;;
77246;SDS011;66279;42.820;23.374;2023-02-15T01:08:26;3.10;;;2.65;;
77246;SDS011;66279;42.820;23.374;2023-02-15T01:10:52;3.13;;;2.58;;
77246;SDS011;66279;42.820;23.374;2023-02-15T01:13:18;4.05;;;2.67;;
77246;SDS011;66279;42.820;23.374;2023-02-15T01:15:43;3.15;;;2.90;;
77246;SDS011;66279;42.820;23.374;2023-02-15T01:18:09;3.22;;;2.92;;
77246;SDS011;66279;42.820;23.374;2023-02-15T01:20:37;2.72;;;2.53;;
77246;SDS011;66279;42.820;23.374;2023-02-15T01:23:06;3.17;;;2.42;;
77246;SDS011;66279;42.820;23.374;2023-02-15T01:25:33;3.08;;;2.83;;
77246;SDS011;66279;42.820;23.374;2023-02-15T01:27:59;3.13;;;2.83;;
77246;SDS011;66279;42.820;23.374;2023-02-15T01:30:25;3.40;;;3.10;;
77246;SDS011;66279;42.820;23.374;2023-02-15T01:32:51;3.60;;;3.30;;
77246;SDS011;66279;42.820;23.374;2023-02-15T01:35:17;2.63;;;2.38;;
77246;SDS011;66279;42.820;23.374;2023-02-15T01:37:42;3.20;;;2.95;;
77246;SDS011;66279;42.820;23.374;2023-02-15T01:40:09;3.30;;;3.00;;
77246;SDS011;66279;42.820;23.374;2023-02-15T01:42:38;3.20;;;2.90;;
77246;SDS011;66279;42.820;23.374;2023-02-15T01:45:27;4.05;;;3.33;;
77246;SDS011;66279;42.820;23.374;2023-02-15T01:50:46;2.50;;;2.30;;
77246;SDS011;66279;42.820;23.374;2023-02-15T01:53:25;2.50;;;2.30;;
77246;SDS011;66279;42.820;23.374;2023-02-15T01:55:58;3.13;;;2.40;;
77246;SDS011;66279;42.820;23.374;2023-02-15T01:58:30;2.30;;;2.10;;
77246;SDS011;66279;42.820;23.374;2023-02-15T02:00:59;2.47;;;2.28;;
77246;SDS011;66279;42.820;23.374;2023-02-15T02:06:28;2.22;;;1.85;;
77246;SDS011;66279;42.820;23.374;2023-02-15T02:08:55;2.63;;;2.30;;
77246;SDS011;66279;42.820;23.374;2023-02-15T02:11:22;2.88;;;2.58;;
77246;SDS011;66279;42.820;23.374;2023-02-15T02:13:47;3.33;;;3.03;;
77246;SDS011;66279;42.820;23.374;2023-02-15T02:35:57;3.22;;;2.92;;
77246;SDS011;66279;42.820;23.374;2023-02-15T02:43:52;2.88;;;2.53;;
77246;SDS011;66279;42.820;23.374;2023-02-15T02:46:35;3.50;;;2.30;;
77246;SDS011;66279;42.820;23.374;2023-02-15T02:49:07;2.90;;;2.38;;
77246;SDS011;66279;42.820;23.374;2023-02-15T02:51:33;2.90;;;2.53;;
77246;SDS011;66279;42.820;23.374;2023-02-15T02:53:59;3.28;;;2.97;;
77246;SDS011;66279;42.820;23.374;2023-02-15T02:56:42;2.90;;;2.70;;
77246;SDS011;66279;42.820;23.374;2023-02-15T02:59:11;3.50;;;2.22;;
77246;SDS011;66279;42.820;23.374;2023-02-15T03:01:39;3.63;;;3.33;;
77246;SDS011;66279;42.820;23.374;2023-02-15T03:04:20;2.53;;;2.33;;
77246;SDS011;66279;42.820;23.374;2023-02-15T03:06:52;2.42;;;2.22;;
77246;SDS011;66279;42.820;23.374;2023-02-15T03:09:27;2.30;;;1.60;;
77246;SDS011;66279;42.820;23.374;2023-02-15T03:12:11;3.05;;;2.75;;
77246;SDS011;66279;42.820;23.374;2023-02-15T03:14:40;2.45;;;2.25;;
77246;SDS011;66279;42.820;23.374;2023-02-15T03:17:08;2.95;;;2.72;;
77246;SDS011;66279;42.820;23.374;2023-02-15T03:19:36;3.40;;;3.10;;
77246;SDS011;66279;42.820;23.374;2023-02-15T03:22:08;2.30;;;2.10;;
77246;SDS011;66279;42.820;23.374;2023-02-15T03:27:13;2.85;;;2.65;;
77246;SDS011;66279;42.820;23.374;2023-02-15T03:29:43;2.97;;;2.67;;
77246;SDS011;66279;42.820;23.374;2023-02-15T03:32:15;2.78;;;2.30;;
77246;SDS011;66279;42.820;23.374;2023-02-15T03:34:42;2.45;;;2.25;;
77246;SDS011;66279;42.820;23.374;2023-02-15T03:37:20;3.78;;;3.47;;
77246;SDS011;66279;42.820;23.374;2023-02-15T03:39:56;2.78;;;2.58;;
77246;SDS011;66279;42.820;23.374;2023-02-15T03:42:46;3.05;;;2.80;;
77246;SDS011;66279;42.820;23.374;2023-02-15T03:45:18;4.00;;;2.85;;
77246;SDS011;66279;42.820;23.374;2023-02-15T03:47:50;2.40;;;2.20;;
77246;SDS011;66279;42.820;23.374;2023-02-15T03:50:24;2.70;;;2.30;;
77246;SDS011;66279;42.820;23.374;2023-02-15T03:53:18;3.10;;;2.65;;
77246;SDS011;66279;42.820;23.374;2023-02-15T03:55:52;1.30;;;1.20;;
77246;SDS011;66279;42.820;23.374;2023-02-15T03:58:19;3.65;;;3.17;;
77246;SDS011;66279;42.820;23.374;2023-02-15T04:01:05;2.55;;;2.35;;
77246;SDS011;66279;42.820;23.374;2023-02-15T04:04:12;2.75;;;2.08;;
77246;SDS011;66279;42.820;23.374;2023-02-15T04:06:45;2.92;;;2.67;;
77246;SDS011;66279;42.820;23.374;2023-02-15T04:09:11;3.20;;;2.78;;
77246;SDS011;66279;42.820;23.374;2023-02-15T04:11:56;3.35;;;2.80;;
77246;SDS011;66279;42.820;23.374;2023-02-15T04:14:21;3.30;;;2.60;;
77246;SDS011;66279;42.820;23.374;2023-02-15T04:17:06;3.17;;;2.90;;
77246;SDS011;66279;42.820;23.374;2023-02-15T04:19:32;2.45;;;2.25;;
77246;SDS011;66279;42.820;23.374;2023-02-15T04:22:16;2.60;;;2.40;;
77246;SDS011;66279;42.820;23.374;2023-02-15T04:25:00;3.15;;;2.72;;
77246;SDS011;66279;42.820;23.374;2023-02-15T04:27:39;3.15;;;2.85;;
77246;SDS011;66279;42.820;23.374;2023-02-15T04:30:13;3.60;;;3.30;;
77246;SDS011;66279;42.820;23.374;2023-02-15T04:32:40;2.42;;;2.05;;
77246;SDS011;66279;42.820;23.374;2023-02-15T04:35:06;2.85;;;2.63;;
77246;SDS011;66279;42.820;23.374;2023-02-15T04:37:32;2.75;;;2.55;;
77246;SDS011;66279;42.820;23.374;2023-02-15T04:39:58;3.20;;;2.90;;
77246;SDS011;66279;42.820;23.374;2023-02-15T04:42:24;3.60;;;3.28;;
77246;SDS011;66279;42.820;23.374;2023-02-15T04:44:50;3.22;;;2.92;;
77246;SDS011;66279;42.820;23.374;2023-02-15T04:47:16;2.15;;;2.03;;
77246;SDS011;66279;42.820;23.374;2023-02-15T04:49:42;3.45;;;3.15;;
77246;SDS011;66279;42.820;23.374;2023-02-15T04:52:07;3.08;;;2.78;;
77246;SDS011;66279;42.820;23.374;2023-02-15T04:54:33;2.88;;;2.53;;
77246;SDS011;66279;42.820;23.374;2023-02-15T04:56:59;3.30;;;2.42;;
77246;SDS011;66279;42.820;23.374;2023-02-15T04:59:24;3.85;;;3.50;;
77246;SDS011;66279;42.820;23.374;2023-02-15T05:01:49;1.42;;;1.33;;
77246;SDS011;66279;42.820;23.374;2023-02-15T05:04:15;2.88;;;2.58;;
77246;SDS011;66279;42.820;23.374;2023-02-15T05:06:41;2.65;;;1.85;;
77246;SDS011;66279;42.820;23.374;2023-02-15T05:09:06;3.78;;;3.10;;
77246;SDS011;66279;42.820;23.374;2023-02-15T05:11:32;2.63;;;2.30;;
77246;SDS011;66279;42.820;23.374;2023-02-15T05:13:57;4.38;;;3.63;;
77246;SDS011;66279;42.820;23.374;2023-02-15T05:16:23;3.78;;;3.45;;
77246;SDS011;66279;42.820;23.374;2023-02-15T05:18:48;4.50;;;3.75;;
77246;SDS011;66279;42.820;23.374;2023-02-15T05:21:14;3.88;;;3.47;;
77246;SDS011;66279;42.820;23.374;2023-02-15T05:23:41;4.05;;;2.30;;
77246;SDS011;66279;42.820;23.374;2023-02-15T05:26:09;3.13;;;2.83;;
77246;SDS011;66279;42.820;23.374;2023-02-15T05:28:54;2.13;;;1.88;;
77246;SDS011;66279;42.820;23.374;2023-02-15T05:31:20;3.45;;;3.15;;
77246;SDS011;66279;42.820;23.374;2023-02-15T05:33:46;3.10;;;2.80;;
77246;SDS011;66279;42.820;23.374;2023-02-15T05:36:11;2.75;;;2.55;;
77246;SDS011;66279;42.820;23.374;2023-02-15T05:38:37;3.42;;;2.83;;
77246;SDS011;66279;42.820;23.374;2023-02-15T05:41:03;2.72;;;2.53;;
77246;SDS011;66279;42.820;23.374;2023-02-15T05:43:30;2.70;;;2.25;;
77246;SDS011;66279;42.820;23.374;2023-02-15T05:45:56;4.50;;;3.40;;
77246;SDS011;66279;42.820;23.374;2023-02-15T05:48:22;4.07;;;3.67;;
77246;SDS011;66279;42.820;23.374;2023-02-15T05:51:05;3.63;;;3.33;;
77246;SDS011;66279;42.820;23.374;2023-02-15T05:53:34;3.35;;;2.90;;
77246;SDS011;66279;42.820;23.374;2023-02-15T05:56:00;4.03;;;3.47;;
77246;SDS011;66279;42.820;23.374;2023-02-15T05:58:37;3.47;;;3.17;;
77246;SDS011;66279;42.820;23.374;2023-02-15T06:01:11;4.28;;;3.97;;
77246;SDS011;66279;42.820;23.374;2023-02-15T06:03:42;4.18;;;3.42;;
77246;SDS011;66279;42.820;23.374;2023-02-15T06:06:08;3.75;;;3.45;;
77246;SDS011;66279;42.820;23.374;2023-02-15T06:08:35;4.07;;;3.70;;
77246;SDS011;66279;42.820;23.374;2023-02-15T06:11:01;4.57;;;3.50;;
77246;SDS011;66279;42.820;23.374;2023-02-15T06:13:26;3.90;;;3.55;;
77246;SDS011;66279;42.820;23.374;2023-02-15T06:15:52;3.88;;;3.42;;
77246;SDS011;66279;42.820;23.374;2023-02-15T06:18:17;3.35;;;3.05;;
77246;SDS011;66279;42.820;23.374;2023-02-15T06:20:45;3.28;;;3.05;;
77246;SDS011;66279;42.820;23.374;2023-02-15T06:23:11;4.13;;;3.10;;
77246;SDS011;66279;42.820;23.374;2023-02-15T06:25:36;3.63;;;3.33;;
77246;SDS011;66279;42.820;23.374;2023-02-15T06:28:02;3.85;;;3.55;;
77246;SDS011;66279;42.820;23.374;2023-02-15T06:30:27;5.78;;;5.15;;
77246;SDS011;66279;42.820;23.374;2023-02-15T06:32:53;4.50;;;4.10;;
77246;SDS011;66279;42.820;23.374;2023-02-15T06:35:18;5.20;;;4.60;;
77246;SDS011;66279;42.820;23.374;2023-02-15T06:37:45;5.63;;;5.13;;
77246;SDS011;66279;42.820;23.374;2023-02-15T06:40:11;4.97;;;4.53;;
77246;SDS011;66279;42.820;23.374;2023-02-15T06:42:37;5.70;;;5.20;;
77246;SDS011;66279;42.820;23.374;2023-02-15T06:45:03;5.05;;;4.60;;
77246;SDS011;66279;42.820;23.374;2023-02-15T06:47:29;5.78;;;5.35;;
77246;SDS011;66279;42.820;23.374;2023-02-15T06:49:55;6.03;;;5.50;;
77246;SDS011;66279;42.820;23.374;2023-02-15T06:52:20;6.47;;;5.88;;
77246;SDS011;66279;42.820;23.374;2023-02-15T06:54:46;8.10;;;7.40;;
77246;SDS011;66279;42.820;23.374;2023-02-15T06:57:11;9.23;;;8.43;;
77246;SDS011;66279;42.820;23.374;2023-02-15T06:59:37;9.65;;;8.77;;
77246;SDS011;66279;42.820;23.374;2023-02-15T07:02:02;9.27;;;8.48;;
77246;SDS011;66279;42.820;23.374;2023-02-15T07:04:28;8.60;;;7.80;;
77246;SDS011;66279;42.820;23.374;2023-02-15T07:06:54;7.93;;;7.20;;
77246;SDS011;66279;42.820;23.374;2023-02-15T07:09:20;6.60;;;5.05;;
77246;SDS011;66279;42.820;23.374;2023-02-15T07:11:47;6.38;;;5.78;;
77246;SDS011;66279;42.820;23.374;2023-02-15T07:14:31;11.45;;;10.35;;
77246;SDS011;66279;42.820;23.374;2023-02-15T07:16:57;19.77;;;16.73;;
77246;SDS011;66279;42.820;23.374;2023-02-15T07:19:22;55.60;;;42.80;;
77246;SDS011;66279;42.820;23.374;2023-02-15T07:21:48;48.97;;;38.20;;
77246;SDS011;66279;42.820;23.374;2023-02-15T07:24:14;32.30;;;26.80;;
77246;SDS011;66279;42.820;23.374;2023-02-15T07:29:14;10.98;;;9.98;;
77246;SDS011;66279;42.820;23.374;2023-02-15T07:31:41;11.60;;;10.40;;
77246;SDS011;66279;42.820;23.374;2023-02-15T07:34:08;10.00;;;9.10;;
77246;SDS011;66279;42.820;23.374;2023-02-15T07:36:34;8.90;;;8.10;;
77246;SDS011;66279;42.820;23.374;2023-02-15T07:38:59;6.65;;;6.05;;
77246;SDS011;66279;42.820;23.374;2023-02-15T07:41:25;6.95;;;6.35;;
77246;SDS011;66279;42.820;23.374;2023-02-15T07:43:50;6.35;;;5.75;;
77246;SDS011;66279;42.820;23.374;2023-02-15T07:46:16;7.50;;;6.80;;
77246;SDS011;66279;42.820;23.374;2023-02-15T07:48:44;7.38;;;6.68;;
77246;SDS011;66279;42.820;23.374;2023-02-15T07:51:10;7.72;;;7.03;;
77246;SDS011;66279;42.820;23.374;2023-02-15T07:53:37;7.28;;;6.57;;
77246;SDS011;66279;42.820;23.374;2023-02-15T07:56:04;5.97;;;5.47;;
77246;SDS011;66279;42.820;23.374;2023-02-15T07:58:32;7.38;;;6.78;;
77246;SDS011;66279;42.820;23.374;2023-02-15T08:01:21;5.63;;;5.13;;
77246;SDS011;66279;42.820;23.374;2023-02-15T08:03:48;4.07;;;3.70;;
77246;SDS011;66279;42.820;23.374;2023-02-15T08:06:14;4.43;;;4.03;;
77246;SDS011;66279;42.820;23.374;2023-02-15T08:08:40;3.88;;;3.58;;
77246;SDS011;66279;42.820;23.374;2023-02-15T08:14:02;3.72;;;3.42;;
77246;SDS011;66279;42.820;23.374;2023-02-15T08:19:05;3.63;;;3.33;;
77246;SDS011;66279;42.820;23.374;2023-02-15T08:21:39;2.75;;;2.55;;
77246;SDS011;66279;42.820;23.374;2023-02-15T08:24:07;3.03;;;2.72;;
77246;SDS011;66279;42.820;23.374;2023-02-15T08:26:34;2.40;;;2.20;;
77246;SDS011;66279;42.820;23.374;2023-02-15T08:29:01;2.55;;;2.35;;
77246;SDS011;66279;42.820;23.374;2023-02-15T08:31:27;2.53;;;1.98;;
77246;SDS011;66279;42.820;23.374;2023-02-15T08:33:53;2.45;;;2.28;;
77246;SDS011;66279;42.820;23.374;2023-02-15T08:36:21;2.30;;;2.10;;
77246;SDS011;66279;42.820;23.374;2023-02-15T08:38:50;2.50;;;2.30;;
77246;SDS011;66279;42.820;23.374;2023-02-15T08:41:20;2.70;;;2.50;;
77246;SDS011;66279;42.820;23.374;2023-02-15T08:43:50;2.30;;;2.10;;
77246;SDS011;66279;42.820;23.374;2023-02-15T08:46:19;2.35;;;2.15;;
77246;SDS011;66279;42.820;23.374;2023-02-15T08:48:45;2.83;;;2.63;;
77246;SDS011;66279;42.820;23.374;2023-02-15T08:51:12;2.20;;;1.98;;
77246;SDS011;66279;42.820;23.374;2023-02-15T08:53:43;2.47;;;2.28;;
77246;SDS011;66279;42.820;23.374;2023-02-15T08:56:14;2.30;;;2.10;;
77246;SDS011;66279;42.820;23.374;2023-02-15T08:58:40;2.50;;;2.30;;
77246;SDS011;66279;42.820;23.374;2023-02-15T09:01:13;2.05;;;1.92;;
77246;SDS011;66279;42.820;23.374;2023-02-15T09:03:43;2.85;;;2.65;;
77246;SDS011;66279;42.820;23.374;2023-02-15T09:06:10;2.40;;;2.20;;
77246;SDS011;66279;42.820;23.374;2023-02-15T09:08:36;2.40;;;2.20;;
77246;SDS011;66279;42.820;23.374;2023-02-15T09:11:21;2.88;;;2.63;;
77246;SDS011;66279;42.820;23.374;2023-02-15T09:13:53;2.42;;;2.22;;
77246;SDS011;66279;42.820;23.374;2023-02-15T09:16:27;2.25;;;2.05;;
77246;SDS011;66279;42.820;23.374;2023-02-15T09:21:22;2.58;;;2.38;;
77246;SDS011;66279;42.820;23.374;2023-02-15T09:23:50;2.20;;;2.00;;
77246;SDS011;66279;42.820;23.374;2023-02-15T09:26:17;2.63;;;2.42;;
77246;SDS011;66279;42.820;23.374;2023-02-15T09:28:45;3.70;;;2.17;;
77246;SDS011;66279;42.820;23.374;2023-02-15T09:31:12;2.63;;;2.08;;
77246;SDS011;66279;42.820;23.374;2023-02-15T09:33:41;2.33;;;2.13;;
77246;SDS011;66279;42.820;23.374;2023-02-15T09:39:37;2.10;;;2.00;;
77246;SDS011;66279;42.820;23.374;2023-02-15T10:03:37;4.35;;;2.85;;
77246;SDS011;66279;42.820;23.374;2023-02-15T10:14:45;2.17;;;1.98;;
77246;SDS011;66279;42.820;23.374;2023-02-15T10:25:05;1.67;;;1.58;;
77246;SDS011;66279;42.820;23.374;2023-02-15T10:27:56;1.83;;;1.67;;
77246;SDS011;66279;42.820;23.374;2023-02-15T10:30:48;3.00;;;1.65;;
77246;SDS011;66279;42.820;23.374;2023-02-15T10:46:25;2.25;;;2.05;;
77246;SDS011;66279;42.820;23.374;2023-02-15T10:49:06;2.05;;;1.90;;
77246;SDS011;66279;42.820;23.374;2023-02-15T10:57:24;1.73;;;1.60;;
77246;SDS011;66279;42.820;23.374;2023-02-15T11:02:41;2.53;;;2.33;;
77246;SDS011;66279;42.820;23.374;2023-02-15T11:05:24;2.20;;;2.00;;
77246;SDS011;66279;42.820;23.374;2023-02-15T11:07:52;2.10;;;1.92;;
77246;SDS011;66279;42.820;23.374;2023-02-15T11:10:38;2.03;;;1.83;;
77246;SDS011;66279;42.820;23.374;2023-02-15T11:16:09;2.20;;;2.00;;
77246;SDS011;66279;42.820;23.374;2023-02-15T11:18:39;2.08;;;1.88;;
77246;SDS011;66279;42.820;23.374;2023-02-15T11:21:17;4.32;;;2.33;;
77246;SDS011;66279;42.820;23.374;2023-02-15T11:23:47;2.33;;;2.13;;
77246;SDS011;66279;42.820;23.374;2023-02-15T11:26:19;3.33;;;3.05;;
77246;SDS011;66279;42.820;23.374;2023-02-15T11:29:05;2.55;;;2.30;;
77246;SDS011;66279;42.820;23.374;2023-02-15T11:31:41;2.40;;;2.20;;
77246;SDS011;66279;42.820;23.374;2023-02-15T11:34:27;2.00;;;1.80;;
77246;SDS011;66279;42.820;23.374;2023-02-15T11:36:59;2.10;;;1.90;;
77246;SDS011;66279;42.820;23.374;2023-02-15T11:39:30;2.17;;;2.05;;
77246;SDS011;66279;42.820;23.374;2023-02-15T11:41:58;2.47;;;1.65;;
77246;SDS011;66279;42.820;23.374;2023-02-15T11:44:32;5.97;;;5.40;;
77246;SDS011;66279;42.820;23.374;2023-02-15T11:47:08;2.65;;;2.30;;
77246;SDS011;66279;42.820;23.374;2023-02-15T11:49:36;3.13;;;2.83;;
77246;SDS011;66279;42.820;23.374;2023-02-15T11:52:05;2.28;;;2.03;;
77246;SDS011;66279;42.820;23.374;2023-02-15T11:54:33;2.63;;;2.42;;
77246;SDS011;66279;42.820;23.374;2023-02-15T11:57:05;2.20;;;2.00;;
77246;SDS011;66279;42.820;23.374;2023-02-15T11:59:39;3.38;;;3.08;;
77246;SDS011;66279;42.820;23.374;2023-02-15T12:02:15;3.22;;;2.90;;
77246;SDS011;66279;42.820;23.374;2023-02-15T12:04:43;3.63;;;2.40;;
77246;SDS011;66279;42.820;23.374;2023-02-15T12:07:23;1.92;;;1.83;;
77246;SDS011;66279;42.820;23.374;2023-02-15T12:09:55;2.53;;;2.33;;
77246;SDS011;66279;42.820;23.374;2023-02-15T12:12:29;3.58;;;3.38;;
77246;SDS011;66279;42.820;23.374;2023-02-15T12:14:57;4.05;;;3.70;;
77246;SDS011;66279;42.820;23.374;2023-02-15T12:17:29;2.72;;;2.53;;
77246;SDS011;66279;42.820;23.374;2023-02-15T12:20:01;2.90;;;2.63;;
77246;SDS011;66279;42.820;23.374;2023-02-15T12:22:54;2.78;;;2.58;;
77246;SDS011;66279;42.820;23.374;2023-02-15T12:25:42;2.60;;;2.40;;
77246;SDS011;66279;42.820;23.374;2023-02-15T12:28:35;2.97;;;2.78;;
77246;SDS011;66279;42.820;23.374;2023-02-15T12:31:03;3.25;;;3.03;;
77246;SDS011;66279;42.820;23.374;2023-02-15T12:33:43;2.95;;;2.75;;
77246;SDS011;66279;42.820;23.374;2023-02-15T12:38:39;3.15;;;2.85;;
77246;SDS011;66279;42.820;23.374;2023-02-15T12:41:19;4.25;;;3.95;;
77246;SDS011;66279;42.820;23.374;2023-02-15T12:43:48;3.35;;;3.05;;
77246;SDS011;66279;42.820;23.374;2023-02-15T12:46:56;3.33;;;3.08;;
77246;SDS011;66279;42.820;23.374;2023-02-15T12:49:25;3.75;;;3.40;;
77246;SDS011;66279;42.820;23.374;2023-02-15T12:51:56;3.58;;;3.30;;
77246;SDS011;66279;42.820;23.374;2023-02-15T12:56:55;3.08;;;2.33;;
77246;SDS011;66279;42.820;23.374;2023-02-15T12:59:22;3.53;;;2.75;;
77246;SDS011;66279;42.820;23.374;2023-02-15T13:01:48;2.70;;;2.22;;
77246;SDS011;66279;42.820;23.374;2023-02-15T13:04:26;2.03;;;1.83;;
77246;SDS011;66279;42.820;23.374;2023-02-15T13:06:58;2.25;;;2.05;;
77246;SDS011;66279;42.820;23.374;2023-02-15T13:11:57;2.70;;;2.50;;
77246;SDS011;66279;42.820;23.374;2023-02-15T13:14:43;3.53;;;2.78;;
77246;SDS011;66279;42.820;23.374;2023-02-15T13:17:10;3.22;;;3.00;;
77246;SDS011;66279;42.820;23.374;2023-02-15T13:19:46;3.05;;;2.85;;
77246;SDS011;66279;42.820;23.374;2023-02-15T13:22:18;3.47;;;3.13;;
77246;SDS011;66279;42.820;23.374;2023-02-15T13:24:51;3.17;;;2.88;;
77246;SDS011;66279;42.820;23.374;2023-02-15T13:27:21;3.03;;;2.83;;
77246;SDS011;66279;42.820;23.374;2023-02-15T13:29:50;3.58;;;2.80;;
77246;SDS011;66279;42.820;23.374;2023-02-15T13:34:49;2.17;;;1.98;;
77246;SDS011;66279;42.820;23.374;2023-02-15T13:40:25;2.72;;;2.53;;
77246;SDS011;66279;42.820;23.374;2023-02-15T13:51:49;2.95;;;2.30;;
77246;SDS011;66279;42.820;23.374;2023-02-15T13:57:15;3.00;;;2.47;;
77246;SDS011;66279;42.820;23.374;2023-02-15T14:08:54;3.28;;;2.60;;
77246;SDS011;66279;42.820;23.374;2023-02-15T14:17:59;3.13;;;2.83;;
77246;SDS011;66279;42.820;23.374;2023-02-15T14:20:46;2.58;;;2.38;;
77246;SDS011;66279;42.820;23.374;2023-02-15T14:28:58;2.90;;;2.70;;
77246;SDS011;66279;42.820;23.374;2023-02-15T14:31:33;3.05;;;2.85;;
77246;SDS011;66279;42.820;23.374;2023-02-15T14:34:03;3.40;;;2.55;;
77246;SDS011;66279;42.820;23.374;2023-02-15T14:36:29;3.22;;;3.03;;
77246;SDS011;66279;42.820;23.374;2023-02-15T14:42:34;4.60;;;4.20;;
77246;SDS011;66279;42.820;23.374;2023-02-15T14:45:41;3.60;;;3.30;;
77246;SDS011;66279;42.820;23.374;2023-02-15T14:48:25;3.53;;;3.22;;
77246;SDS011;66279;42.820;23.374;2023-02-15T14:54:12;3.88;;;3.58;;
77246;SDS011;66279;42.820;23.374;2023-02-15T14:59:27;3.70;;;3.40;;
77246;SDS011;66279;42.820;23.374;2023-02-15T15:04:35;3.08;;;2.88;;
77246;SDS011;66279;42.820;23.374;2023-02-15T15:10:04;6.70;;;6.07;;
77246;SDS011;66279;42.820;23.374;2023-02-15T15:20:39;4.93;;;4.53;;
77246;SDS011;66279;42.820;23.374;2023-02-15T15:25:50;4.18;;;3.85;;
77246;SDS011;66279;42.820;23.374;2023-02-15T15:42:32;4.15;;;3.85;;
77246;SDS011;66279;42.820;23.374;2023-02-15T15:50:43;4.05;;;3.75;;
77246;SDS011;66279;42.820;23.374;2023-02-15T15:53:27;4.45;;;4.15;;
77246;SDS011;66279;42.820;23.374;2023-02-15T15:56:04;6.22;;;5.72;;
77246;SDS011;66279;42.820;23.374;2023-02-15T16:03:33;5.78;;;5.28;;
77246;SDS011;66279;42.820;23.374;2023-02-15T16:05:59;10.80;;;9.90;;
77246;SDS011;66279;42.820;23.374;2023-02-15T16:08:37;9.57;;;8.68;;
77246;SDS011;66279;42.820;23.374;2023-02-15T16:11:10;6.80;;;6.20;;
77246;SDS011;66279;42.820;23.374;2023-02-15T16:13:40;5.20;;;4.80;;
77246;SDS011;66279;42.820;23.374;2023-02-15T16:16:06;5.72;;;5.22;;
77246;SDS011;66279;42.820;23.374;2023-02-15T16:21:00;4.93;;;3.47;;
77246;SDS011;66279;42.820;23.374;2023-02-15T16:29:15;4.40;;;4.05;;
77246;SDS011;66279;42.820;23.374;2023-02-15T16:31:58;4.35;;;3.95;;
77246;SDS011;66279;42.820;23.374;2023-02-15T16:34:46;3.38;;;3.08;;
77246;SDS011;66279;42.820;23.374;2023-02-15T16:37:16;4.25;;;3.85;;
77246;SDS011;66279;42.820;23.374;2023-02-15T16:39:44;4.78;;;4.38;;
77246;SDS011;66279;42.820;23.374;2023-02-15T16:42:13;4.93;;;4.53;;
77246;SDS011;66279;42.820;23.374;2023-02-15T16:44:41;3.95;;;3.65;;
77246;SDS011;66279;42.820;23.374;2023-02-15T16:47:13;2.63;;;2.42;;
77246;SDS011;66279;42.820;23.374;2023-02-15T16:49:45;2.95;;;2.75;;
77246;SDS011;66279;42.820;23.374;2023-02-15T16:52:19;4.90;;;4.38;;
77246;SDS011;66279;42.820;23.374;2023-02-15T16:54:49;4.18;;;3.88;;
77246;SDS011;66279;42.820;23.374;2023-02-15T16:57:20;4.50;;;4.10;;
77246;SDS011;66279;42.820;23.374;2023-02-15T16:59:49;5.82;;;5.30;;
77246;SDS011;66279;42.820;23.374;2023-02-15T17:02:18;4.82;;;4.43;;
77246;SDS011;66279;42.820;23.374;2023-02-15T17:04:59;3.35;;;3.05;;
77246;SDS011;66279;42.820;23.374;2023-02-15T17:07:32;3.50;;;3.20;;
77246;SDS011;66279;42.820;23.374;2023-02-15T17:09:58;4.05;;;3.75;;
77246;SDS011;66279;42.820;23.374;2023-02-15T17:15:26;4.43;;;4.03;;
77246;SDS011;66279;42.820;23.374;2023-02-15T17:18:16;3.95;;;3.65;;
77246;SDS011;66279;42.820;23.374;2023-02-15T17:20:45;4.70;;;4.30;;
77246;SDS011;66279;42.820;23.374;2023-02-15T17:23:32;5.70;;;5.20;;
77246;SDS011;66279;42.820;23.374;2023-02-15T17:28:29;4.78;;;4.38;;
77246;SDS011;66279;42.820;23.374;2023-02-15T17:30:56;5.82;;;5.43;;
77246;SDS011;66279;42.820;23.374;2023-02-15T17:33:35;5.93;;;5.43;;
77246;SDS011;66279;42.820;23.374;2023-02-15T17:36:23;3.97;;;3.60;;
77246;SDS011;66279;42.820;23.374;2023-02-15T17:41:29;5.63;;;5.13;;
77246;SDS011;66279;42.820;23.374;2023-02-15T17:43:56;6.22;;;5.68;;
77246;SDS011;66279;42.820;23.374;2023-02-15T17:46:22;3.90;;;3.50;;
77246;SDS011;66279;42.820;23.374;2023-02-15T17:48:51;3.80;;;3.47;;
77246;SDS011;66279;42.820;23.374;2023-02-15T17:51:19;3.25;;;2.95;;
77246;SDS011;66279;42.820;23.374;2023-02-15T17:53:46;2.85;;;2.65;;
77246;SDS011;66279;42.820;23.374;2023-02-15T17:56:31;3.53;;;3.22;;
77246;SDS011;66279;42.820;23.374;2023-02-15T17:58:57;4.88;;;4.45;;
77246;SDS011;66279;42.820;23.374;2023-02-15T18:01:22;5.22;;;4.72;;
77246;SDS011;66279;42.820;23.374;2023-02-15T18:04:11;7.60;;;6.90;;
77246;SDS011;66279;42.820;23.374;2023-02-15T18:06:56;7.70;;;6.07;;
77246;SDS011;66279;42.820;23.374;2023-02-15T18:09:41;4.47;;;4.07;;
77246;SDS011;66279;42.820;23.374;2023-02-15T18:12:29;3.58;;;3.28;;
77246;SDS011;66279;42.820;23.374;2023-02-15T18:14:56;2.60;;;2.38;;
77246;SDS011;66279;42.820;23.374;2023-02-15T18:17:27;3.38;;;3.08;;
77246;SDS011;66279;42.820;23.374;2023-02-15T18:19:59;3.25;;;2.83;;
77246;SDS011;66279;42.820;23.374;2023-02-15T18:22:30;4.28;;;3.88;;
77246;SDS011;66279;42.820;23.374;2023-02-15T18:24:57;3.55;;;3.25;;
77246;SDS011;66279;42.820;23.374;2023-02-15T18:27:22;3.53;;;3.22;;
77246;SDS011;66279;42.820;23.374;2023-02-15T18:29:48;4.05;;;3.72;;
77246;SDS011;66279;42.820;23.374;2023-02-15T18:32:15;4.18;;;3.88;;
77246;SDS011;66279;42.820;23.374;2023-02-15T18:34:42;4.25;;;3.85;;
77246;SDS011;66279;42.820;23.374;2023-02-15T18:37:18;4.80;;;4.40;;
77246;SDS011;66279;42.820;23.374;2023-02-15T18:39:52;4.55;;;3.67;;